Time;durP1;ratioP1;P1;durP2;ratioP2;P2;SDS_P1;SDS_P2;PMS_P1;PMS_P2;Temp;Humidity;BMP_temperature;BMP_pressure;BME280_temperature;BME280_humidity;BME280_pressure;Samples;Min_cycle;Max_cycle;Signal;HPM_P1;HPM_P2
2024/03/16 00:00:21;;;;;;;0.50;0.50;;;;;;;8.37;100.00;96710.56;29395;224;63008;-55
2024/03/16 00:00:52;;;;;;;0.50;0.50;;;;;;;8.37;100.00;96702.44;29395;223;63004;-56
2024/03/16 00:01:25;;;;;;;0.50;0.50;;;;;;;8.34;100.00;96705.72;29395;248;63009;-55
2024/03/16 00:01:56;;;;;;;0.50;0.50;;;;;;;8.31;100.00;96703.56;29395;268;63005;-55
2024/03/16 00:02:28;;;;;;;0.50;0.50;;;;;;;8.29;100.00;96702.25;29394;231;64014;-55
2024/03/16 00:03:04;;;;;;;0.50;0.50;;;;;;;8.26;100.00;96703.59;29395;196;63005;-56
2024/03/16 00:03:36;;;;;;;0.50;0.50;;;;;;;8.24;100.00;96704.97;29395;229;63009;-56
2024/03/16 00:04:07;;;;;;;0.50;0.50;;;;;;;8.28;100.00;96716.84;29395;278;63005;-56
2024/03/16 00:04:41;;;;;;;0.50;0.50;;;;;;;8.26;100.00;96708.22;29395;264;63009;-56
2024/03/16 00:05:13;;;;;;;0.50;0.50;;;;;;;8.24;100.00;96710.38;29395;261;63000;-55
2024/03/16 00:05:45;;;;;;;0.50;0.50;;;;;;;8.24;100.00;96716.59;29395;202;63009;-56
2024/03/16 00:06:17;;;;;;;0.50;0.50;;;;;;;8.23;100.00;96714.97;29395;238;63004;-63
2024/03/16 00:06:50;;;;;;;0.50;0.50;;;;;;;8.20;100.00;96704.72;29395;237;63009;-56
2024/03/16 00:07:21;;;;;;;0.50;0.50;;;;;;;8.21;100.00;96709.03;29395;225;63004;-56
2024/03/16 00:07:53;;;;;;;0.50;0.50;;;;;;;8.22;100.00;96707.16;29394;204;64013;-56
2024/03/16 00:08:26;;;;;;;0.50;0.50;;;;;;;8.22;100.00;96712.56;29395;221;63004;-56
2024/03/16 00:08:57;;;;;;;0.50;0.50;;;;;;;8.26;100.00;96702.81;29395;273;63009;-55
2024/03/16 00:09:29;;;;;;;0.50;0.50;;;;;;;8.29;100.00;96713.06;29395;220;63005;-55
2024/03/16 00:10:01;;;;;;;0.50;0.50;;;;;;;8.30;100.00;96703.84;29395;267;63009;-55
2024/03/16 00:10:32;;;;;;;0.50;0.50;;;;;;;8.28;100.00;96712.25;29395;215;63005;-55
2024/03/16 00:11:03;;;;;;;0.50;0.50;;;;;;;8.26;100.00;96709.00;29395;233;63009;-56
2024/03/16 00:11:35;;;;;;;0.50;0.50;;;;;;;8.24;100.00;96715.78;29395;218;63005;-56
2024/03/16 00:12:07;;;;;;;0.50;0.50;;;;;;;8.21;100.00;96702.84;29395;202;63009;-56
2024/03/16 00:12:38;;;;;;;0.50;0.50;;;;;;;8.19;100.00;96708.53;29395;213;63000;-55
2024/03/16 00:13:10;;;;;;;0.50;0.50;;;;;;;8.19;100.00;96718.53;29394;202;64013;-55
2024/03/16 00:13:42;;;;;;;0.50;0.50;;;;;;;8.21;100.00;96713.66;29395;204;63007;-56
2024/03/16 00:14:14;;;;;;;0.50;0.50;;;;;;;8.21;100.00;96710.94;29395;202;63022;-56
2024/03/16 00:14:45;;;;;;;0.50;0.50;;;;;;;8.20;100.00;96715.53;29395;370;63004;-56
2024/03/16 00:15:16;;;;;;;0.50;0.50;;;;;;;8.20;100.00;96703.91;29395;212;63009;-55
2024/03/16 00:15:51;;;;;;;0.50;0.50;;;;;;;8.21;100.00;96711.75;29395;229;63004;-56
2024/03/16 00:16:22;;;;;;;0.50;0.50;;;;;;;8.21;100.00;96705.53;29395;226;63009;-55
2024/03/16 00:16:53;;;;;;;0.50;0.50;;;;;;;8.20;100.00;96703.91;29395;214;63005;-56
2024/03/16 00:17:25;;;;;;;0.50;0.50;;;;;;;8.21;100.00;96708.25;29395;264;63009;-56
2024/03/16 00:17:56;;;;;;;0.50;0.50;;;;;;;8.20;100.00;96710.13;29395;197;63005;-56
2024/03/16 00:18:27;;;;;;;0.50;0.50;;;;;;;8.20;100.00;96709.31;29394;214;64013;-56
2024/03/16 00:18:59;;;;;;;0.50;0.50;;;;;;;8.19;100.00;96708.53;29395;238;63005;-57
2024/03/16 00:19:30;;;;;;;0.60;0.60;;;;;;;8.18;100.00;96712.31;29395;198;63009;-56
2024/03/16 00:20:10;;;;;;;0.50;0.50;;;;;;;8.20;100.00;96714.72;29395;241;63005;-57
2024/03/16 00:20:42;;;;;;;0.50;0.50;;;;;;;8.22;100.00;96717.97;29395;196;63009;-56
2024/03/16 00:21:14;;;;;;;0.50;0.50;;;;;;;8.22;100.00;96717.97;29395;228;63004;-56
2024/03/16 00:21:46;;;;;;;0.50;0.50;;;;;;;8.25;100.00;96709.28;29395;261;63009;-56
2024/03/16 00:22:18;;;;;;;0.50;0.50;;;;;;;8.22;100.00;96707.16;29395;198;63004;-56
2024/03/16 00:22:49;;;;;;;0.50;0.50;;;;;;;8.19;100.00;96710.41;29395;202;63009;-56
2024/03/16 00:23:22;;;;;;;0.50;0.50;;;;;;;8.20;100.00;96718.25;29395;226;63004;-56
2024/03/16 00:23:54;;;;;;;0.50;0.50;;;;;;;8.20;100.00;96720.94;29394;207;64014;-56
2024/03/16 00:24:26;;;;;;;0.50;0.50;;;;;;;8.20;100.00;96717.44;29395;210;63005;-56
2024/03/16 00:24:58;;;;;;;0.50;0.50;;;;;;;8.19;100.00;96719.34;29395;202;63009;-56
2024/03/16 00:25:29;;;;;;;0.50;0.50;;;;;;;8.21;100.00;96719.06;29395;222;63005;-56
2024/03/16 00:26:01;;;;;;;0.57;0.57;;;;;;;8.23;100.00;96719.56;29395;234;63009;-55
2024/03/16 00:26:32;;;;;;;0.50;0.50;;;;;;;8.28;100.00;96711.44;29395;210;63005;-56
2024/03/16 00:27:03;;;;;;;0.50;0.50;;;;;;;8.28;100.00;96714.13;29395;213;63009;-56
2024/03/16 00:27:35;;;;;;;0.50;0.50;;;;;;;8.28;100.00;96717.66;29395;250;63004;-56
2024/03/16 00:28:07;;;;;;;0.50;0.50;;;;;;;8.29;100.00;96724.66;29395;221;63009;-55
2024/03/16 00:28:42;;;;;;;0.50;0.50;;;;;;;8.27;100.00;96710.63;29395;197;63004;-64
2024/03/16 00:29:14;;;;;;;0.50;0.50;;;;;;;8.27;100.00;96707.91;29394;235;64013;-56
2024/03/16 00:29:45;;;;;;;0.50;0.50;;;;;;;8.27;100.00;96715.22;29395;238;63004;-55
2024/03/16 00:30:16;;;;;;;0.50;0.50;;;;;;;8.26;100.00;96713.63;29395;227;63008;-56
2024/03/16 00:30:51;;;;;;;0.50;0.50;;;;;;;8.26;100.00;96708.22;29395;272;63013;-55
2024/03/16 00:31:23;;;;;;;0.50;0.50;;;;;;;8.26;100.00;96713.63;29395;212;63009;-56
2024/03/16 00:31:57;;;;;;;0.50;0.50;;;;;;;8.24;100.00;96705.78;29395;226;63005;-56
2024/03/16 00:32:28;;;;;;;0.50;0.50;;;;;;;8.27;100.00;96704.41;29395;238;63020;-56
2024/03/16 00:33:01;;;;;;;0.50;0.50;;;;;;;8.26;100.00;96709.00;29395;213;63005;-56
2024/03/16 00:33:33;;;;;;;0.57;0.57;;;;;;;8.39;100.00;96707.56;29395;294;63009;-58
2024/03/16 00:34:04;;;;;;;0.50;0.50;;;;;;;8.49;100.00;96715.59;29395;254;63005;-56
2024/03/16 00:34:36;;;;;;;0.50;0.50;;;;;;;8.56;100.00;96718.78;29394;235;64013;-55
2024/03/16 00:35:07;;;;;;;0.50;0.50;;;;;;;8.55;100.00;96711.78;29395;252;63004;-55
2024/03/16 00:35:40;;;;;;;0.50;0.50;;;;;;;8.53;100.00;96719.34;29395;213;63009;-56
2024/03/16 00:36:11;;;;;;;0.60;0.60;;;;;;;8.50;100.00;96709.09;29395;206;63004;-55
2024/03/16 00:36:45;;;;;;;0.50;0.50;;;;;;;8.46;100.00;96713.47;29395;206;63009;-55
2024/03/16 00:37:18;;;;;;;0.50;0.50;;;;;;;8.45;100.00;96711.84;29395;292;63004;-55
2024/03/16 00:37:50;;;;;;;0.50;0.50;;;;;;;8.46;100.00;96701.84;29395;204;63008;-56
2024/03/16 00:38:21;;;;;;;0.50;0.50;;;;;;;8.45;100.00;96714.56;29394;219;64009;-56
2024/03/16 00:38:54;;;;;;;0.50;0.50;;;;;;;8.42;100.00;96701.59;29395;202;63005;-56
2024/03/16 00:39:25;;;;;;;0.50;0.50;;;;;;;8.38;100.00;96705.97;29395;254;63005;-56
2024/03/16 00:39:56;;;;;;;0.50;0.50;;;;;;;8.38;100.00;96705.97;29395;196;63026;-55
2024/03/16 00:40:28;;;;;;;0.50;0.50;;;;;;;8.37;100.00;96709.75;29395;227;63005;-56
2024/03/16 00:40:59;;;;;;;0.50;0.50;;;;;;;8.34;100.00;96704.91;29395;237;63014;-55
2024/03/16 00:41:31;;;;;;;0.50;0.50;;;;;;;8.29;100.00;96702.25;29395;215;63005;-55
2024/03/16 00:42:04;;;;;;;0.50;0.50;;;;;;;8.28;100.00;96700.63;29395;242;63009;-55
2024/03/16 00:42:35;;;;;;;0.50;0.50;;;;;;;8.25;100.00;96703.88;29395;210;63004;-56
2024/03/16 00:43:08;;;;;;;0.50;0.50;;;;;;;8.21;100.00;96703.63;29395;220;63009;-64
2024/03/16 00:43:40;;;;;;;0.50;0.50;;;;;;;8.16;100.00;96705.56;29394;259;64009;-55
2024/03/16 00:44:11;;;;;;;0.50;0.50;;;;;;;8.14;100.00;96705.03;29395;214;63018;-65
2024/03/16 00:44:42;;;;;;;0.50;0.50;;;;;;;8.11;100.00;96705.59;29395;219;63004;-55
2024/03/16 00:45:13;;;;;;;0.50;0.50;;;;;;;8.11;100.00;96702.91;29395;258;63008;-55
2024/03/16 00:45:45;;;;;;;0.50;0.50;;;;;;;8.10;100.00;96712.09;29395;199;63005;-56
2024/03/16 00:46:16;;;;;;;0.50;0.50;;;;;;;8.10;100.00;96706.69;29395;259;63009;-56
2024/03/16 00:46:48;;;;;;;0.50;0.50;;;;;;;8.10;100.00;96706.69;29395;207;63005;-56
2024/03/16 00:47:19;;;;;;;0.50;0.50;;;;;;;8.10;100.00;96714.78;29395;253;63020;-56
2024/03/16 00:47:50;;;;;;;0.50;0.50;;;;;;;8.08;100.00;96713.19;29395;231;63005;-56
2024/03/16 00:48:22;;;;;;;0.50;0.50;;;;;;;8.08;100.00;96715.87;29395;203;63009;-55
2024/03/16 00:48:53;;;;;;;0.50;0.50;;;;;;;8.08;100.00;96707.78;29394;260;64009;-56
2024/03/16 00:49:24;;;;;;;0.50;0.50;;;;;;;8.05;100.00;96713.75;29395;263;63014;-55
2024/03/16 00:49:56;;;;;;;0.50;0.50;;;;;;;8.03;100.00;96707.81;29395;276;63009;-56
2024/03/16 00:50:27;;;;;;;0.50;0.50;;;;;;;8.03;100.00;96705.09;29395;255;63009;-56
2024/03/16 00:51:03;;;;;;;0.50;0.50;;;;;;;8.02;100.00;96703.50;29395;229;63004;-56
2024/03/16 00:51:34;;;;;;;0.50;0.50;;;;;;;8.02;100.00;96698.09;29395;224;63009;-55
2024/03/16 00:52:05;;;;;;;0.50;0.50;;;;;;;8.02;100.00;96699.97;29395;262;63004;-56
2024/03/16 00:52:40;;;;;;;0.50;0.50;;;;;;;8.06;100.00;96704.56;29395;325;63008;-55
2024/03/16 00:53:11;;;;;;;0.50;0.50;;;;;;;8.07;100.00;96705.34;29395;384;63005;-56
2024/03/16 00:53:45;;;;;;;0.50;0.50;;;;;;;8.05;100.00;96700.22;29394;215;64014;-56
2024/03/16 00:54:16;;;;;;;0.50;0.50;;;;;;;8.02;100.00;96698.09;29395;216;63005;-56
2024/03/16 00:54:51;;;;;;;0.50;0.50;;;;;;;8.03;100.00;96699.69;29395;216;63009;-55
2024/03/16 00:55:24;;;;;;;0.50;0.50;;;;;;;8.02;100.00;96691.88;29395;276;63015;-56
2024/03/16 00:55:56;;;;;;;0.50;0.50;;;;;;;7.99;100.00;96698.66;29395;322;63009;-56
2024/03/16 00:56:27;;;;;;;0.50;0.50;;;;;;;7.96;100.00;96699.22;29395;254;63000;-55
2024/03/16 00:56:58;;;;;;;0.50;0.50;;;;;;;7.94;100.00;96712.22;29395;212;63009;-55
2024/03/16 00:57:29;;;;;;;0.50;0.50;;;;;;;7.94;100.00;96717.63;29395;212;63017;-56
2024/03/16 00:58:01;;;;;;;0.50;0.50;;;;;;;7.94;100.00;96717.63;29395;197;63009;-55
2024/03/16 00:58:33;;;;;;;0.50;0.50;;;;;;;7.89;100.00;96714.94;29395;207;63004;-55
2024/03/16 00:59:04;;;;;;;0.50;0.50;;;;;;;7.88;100.00;96716.03;29394;250;64013;-55
2024/03/16 00:59:36;;;;;;;0.50;0.50;;;;;;;7.89;100.00;96723.06;29395;228;63004;-55
2024/03/16 01:00:09;;;;;;;0.60;0.60;;;;;;;7.90;100.00;96727.38;29395;216;63008;-55
2024/03/16 01:00:40;;;;;;;0.50;0.50;;;;;;;7.90;100.00;96721.97;29395;278;63005;-55
2024/03/16 01:01:12;;;;;;;0.50;0.50;;;;;;;7.89;100.00;96725.75;29395;275;63009;-55
2024/03/16 01:01:44;;;;;;;0.50;0.50;;;;;;;7.88;100.00;96724.13;29395;252;63005;-56
2024/03/16 01:02:15;;;;;;;0.50;0.50;;;;;;;7.87;100.00;96719.81;29395;297;63005;-56
2024/03/16 01:02:46;;;;;;;0.50;0.50;;;;;;;7.86;100.00;96722.78;29395;275;63005;-56
2024/03/16 01:03:18;;;;;;;0.50;0.50;;;;;;;7.85;100.00;96726.59;29395;204;63005;-55
2024/03/16 01:03:49;;;;;;;0.50;0.50;;;;;;;7.84;100.00;96728.47;29395;228;63005;-56
2024/03/16 01:04:22;;;;;;;0.50;0.50;;;;;;;7.85;100.00;96724.69;29394;267;64013;-56
2024/03/16 01:04:53;;;;;;;0.50;0.50;;;;;;;7.89;100.00;96725.75;29395;244;63004;-58
2024/03/16 01:05:27;;;;;;;0.50;0.50;;;;;;;7.91;100.00;96728.97;29395;271;63009;-55
2024/03/16 01:05:58;;;;;;;0.50;0.50;;;;;;;7.90;100.00;96732.78;29395;227;63004;-56
2024/03/16 01:06:30;;;;;;;0.50;0.50;;;;;;;7.87;100.00;96727.91;29395;210;63009;-56
2024/03/16 01:07:01;;;;;;;0.50;0.50;;;;;;;7.86;100.00;96728.19;29395;258;63004;-56
2024/03/16 01:07:33;;;;;;;0.50;0.50;;;;;;;7.81;100.00;96723.63;29395;229;63008;-56
2024/03/16 01:08:05;;;;;;;0.50;0.50;;;;;;;7.87;100.00;96722.53;29395;196;63010;-56
2024/03/16 01:08:36;;;;;;;0.50;0.50;;;;;;;7.92;100.00;96719.78;29395;238;63009;-58
2024/03/16 01:09:07;;;;;;;0.50;0.50;;;;;;;7.96;100.00;96715.44;29394;240;64009;-55
2024/03/16 01:09:39;;;;;;;0.50;0.50;;;;;;;7.96;100.00;96715.44;29395;266;63009;-56
2024/03/16 01:10:11;;;;;;;0.50;0.50;;;;;;;7.94;100.00;96723.03;29395;208;63005;-55
2024/03/16 01:10:43;;;;;;;0.50;0.50;;;;;;;7.91;100.00;96728.97;29395;215;63009;-56
2024/03/16 01:11:14;;;;;;;0.50;0.50;;;;;;;7.93;100.00;96715.19;29395;203;63005;-56
2024/03/16 01:11:46;;;;;;;0.50;0.50;;;;;;;7.93;100.00;96716.00;29395;224;63009;-56
2024/03/16 01:12:17;;;;;;;0.50;0.50;;;;;;;7.93;100.00;96721.41;29395;238;63004;-57
2024/03/16 01:12:49;;;;;;;0.50;0.50;;;;;;;7.94;100.00;96725.72;29395;237;63009;-55
2024/03/16 01:13:21;;;;;;;0.50;0.50;;;;;;;7.99;100.00;96719.44;29395;208;63004;-56
2024/03/16 01:13:53;;;;;;;0.50;0.50;;;;;;;7.98;100.00;96724.06;29395;218;63009;-55
2024/03/16 01:14:24;;;;;;;0.50;0.50;;;;;;;7.95;100.00;96713.81;29394;252;64008;-56
2024/03/16 01:14:57;;;;;;;0.50;0.50;;;;;;;7.95;100.00;96719.22;29395;317;63008;-55
2024/03/16 01:15:28;;;;;;;0.50;0.50;;;;;;;7.92;100.00;96711.69;29395;259;63004;-55
2024/03/16 01:16:01;;;;;;;0.50;0.50;;;;;;;7.89;100.00;96704.12;29395;234;63009;-56
2024/03/16 01:16:36;;;;;;;0.50;0.50;;;;;;;7.90;100.00;96705.75;29395;219;63005;-55
2024/03/16 01:17:07;;;;;;;0.50;0.50;;;;;;;7.88;100.00;96707.13;29395;264;63009;-56
2024/03/16 01:17:40;;;;;;;0.50;0.50;;;;;;;7.85;100.00;96716.59;29395;245;63005;-56
2024/03/16 01:18:11;;;;;;;0.50;0.50;;;;;;;7.87;100.00;96711.72;29395;238;63009;-55
2024/03/16 01:18:43;;;;;;;0.50;0.50;;;;;;;7.84;100.00;96712.28;29395;205;63005;-55
2024/03/16 01:19:14;;;;;;;0.50;0.50;;;;;;;7.83;100.00;96709.84;29395;249;63009;-55
2024/03/16 01:19:45;;;;;;;0.50;0.50;;;;;;;7.85;100.00;96713.06;29394;208;64009;-56
2024/03/16 01:20:17;;;;;;;0.50;0.50;;;;;;;7.84;100.00;96706.88;29395;196;63009;-55
2024/03/16 01:20:49;;;;;;;0.50;0.50;;;;;;;7.86;100.00;96703.88;29395;208;63008;-55
2024/03/16 01:21:21;;;;;;;0.47;0.47;;;;;;;7.85;100.00;96700.37;29395;197;63009;-55
2024/03/16 01:21:56;;;;;;;0.50;0.50;;;;;;;7.86;100.00;96703.88;29395;245;63004;-56
2024/03/16 01:22:28;;;;;;;0.50;0.50;;;;;;;7.85;100.00;96708.47;29395;229;63009;-55
2024/03/16 01:23:02;;;;;;;0.50;0.50;;;;;;;7.83;100.00;96704.44;29395;227;63005;-56
2024/03/16 01:23:34;;;;;;;0.50;0.50;;;;;;;7.80;100.00;96705.81;29395;199;63016;-55
2024/03/16 01:24:05;;;;;;;0.50;0.50;;;;;;;7.79;100.00;96696.09;29395;233;63005;-56
2024/03/16 01:24:40;;;;;;;0.50;0.50;;;;;;;7.82;100.00;96698.22;29395;269;63009;-56
2024/03/16 01:25:13;;;;;;;0.50;0.50;;;;;;;7.82;100.00;96698.22;29394;215;64009;-56
2024/03/16 01:25:44;;;;;;;0.50;0.50;;;;;;;7.82;100.00;96705.53;29395;212;63009;-55
2024/03/16 01:26:15;;;;;;;0.50;0.50;;;;;;;7.82;100.00;96703.63;29395;202;63013;-55
2024/03/16 01:26:47;;;;;;;0.50;0.50;;;;;;;7.84;100.00;96706.06;29395;246;63019;-56
2024/03/16 01:27:18;;;;;;;0.50;0.50;;;;;;;7.85;100.00;96697.69;29395;265;63004;-56
2024/03/16 01:27:50;;;;;;;0.50;0.50;;;;;;;7.83;100.00;96694.44;29395;199;63009;-55
2024/03/16 01:28:21;;;;;;;0.50;0.50;;;;;;;7.85;100.00;96694.97;29395;223;63004;-55
2024/03/16 01:28:55;;;;;;;0.50;0.50;;;;;;;7.91;100.00;96695.75;29395;210;63009;-55
2024/03/16 01:29:27;;;;;;;0.50;0.50;;;;;;;7.88;100.00;96691.72;29395;202;63004;-56
2024/03/16 01:29:58;;;;;;;0.50;0.50;;;;;;;7.88;100.00;96690.91;29395;214;63008;-56
2024/03/16 01:30:29;;;;;;;0.50;0.50;;;;;;;7.88;100.00;96685.50;29394;219;64009;-55
2024/03/16 01:31:00;;;;;;;0.50;0.50;;;;;;;7.90;100.00;96705.75;29395;198;63009;-55
2024/03/16 01:31:32;;;;;;;0.50;0.50;;;;;;;7.90;100.00;96689.53;29395;224;63005;-56
2024/03/16 01:32:08;;;;;;;0.50;0.50;;;;;;;7.90;100.00;96688.75;29395;219;63009;-56
2024/03/16 01:32:39;;;;;;;0.50;0.50;;;;;;;7.93;100.00;96683.59;29395;227;63000;-60
2024/03/16 01:33:10;;;;;;;0.50;0.50;;;;;;;7.99;100.00;96698.66;29395;267;63009;-56
2024/03/16 01:33:41;;;;;;;0.50;0.50;;;;;;;7.97;100.00;96695.41;29395;221;63005;-56
2024/03/16 01:34:13;;;;;;;0.50;0.50;;;;;;;8.00;100.00;96704.84;29395;237;63014;-55
2024/03/16 01:34:44;;;;;;;0.50;0.50;;;;;;;7.99;100.00;96703.25;29395;199;63004;-56
2024/03/16 01:35:15;;;;;;;0.50;0.50;;;;;;;7.96;100.00;96704.62;29394;233;64013;-57
2024/03/16 01:35:49;;;;;;;0.50;0.50;;;;;;;7.98;100.00;96702.44;29395;272;63004;-55
2024/03/16 01:36:20;;;;;;;0.50;0.50;;;;;;;7.96;100.00;96704.62;29395;242;63009;-56
2024/03/16 01:36:52;;;;;;;0.50;0.50;;;;;;;7.95;100.00;96703.03;29395;203;63004;-56
2024/03/16 01:37:24;;;;;;;0.50;0.50;;;;;;;7.93;100.00;96697.09;29395;214;63008;-65
2024/03/16 01:37:55;;;;;;;0.50;0.50;;;;;;;7.91;100.00;96701.97;29395;209;63005;-56
2024/03/16 01:38:26;;;;;;;0.50;0.50;;;;;;;7.90;100.00;96699.53;29395;220;63009;-56
2024/03/16 01:38:57;;;;;;;0.50;0.50;;;;;;;7.88;100.00;96702.53;29395;304;63005;-56
2024/03/16 01:39:29;;;;;;;0.60;0.60;;;;;;;7.86;100.00;96704.69;29395;262;63009;-56
2024/03/16 01:40:00;;;;;;;0.50;0.50;;;;;;;7.88;100.00;96702.53;29395;220;63005;-56
2024/03/16 01:40:32;;;;;;;0.50;0.50;;;;;;;7.88;100.00;96691.72;29394;218;64013;-56
2024/03/16 01:41:03;;;;;;;0.50;0.50;;;;;;;7.86;100.00;96699.28;29395;231;63005;-55
2024/03/16 01:41:34;;;;;;;0.50;0.50;;;;;;;7.83;100.00;96701.75;29395;256;63009;-56
2024/03/16 01:42:06;;;;;;;0.50;0.50;;;;;;;7.80;100.00;96692.31;29395;211;63004;-56
2024/03/16 01:42:38;;;;;;;0.50;0.50;;;;;;;7.80;100.00;96697.72;29395;268;63009;-56
2024/03/16 01:43:13;;;;;;;0.50;0.50;;;;;;;7.79;100.00;96696.09;29395;199;63004;-56
2024/03/16 01:43:48;;;;;;;0.50;0.50;;;;;;;7.79;100.00;96698.78;29395;275;63009;-55
2024/03/16 01:44:20;;;;;;;0.57;0.57;;;;;;;7.83;100.00;96699.03;29395;217;63004;-56
2024/03/16 01:45:19;;;;;;;0.50;0.50;;;;;;;7.84;100.00;96698.75;29395;202;63008;-56
2024/03/16 01:45:51;;;;;;;0.60;0.60;;;;;;;7.83;100.00;96693.63;29394;206;64009;-55
2024/03/16 01:46:22;;;;;;;0.60;0.60;;;;;;;7.81;100.00;96702.03;29395;216;63009;-57
2024/03/16 01:46:53;;;;;;;0.50;0.50;;;;;;;7.79;100.00;96698.78;29395;253;63005;-56
2024/03/16 01:47:25;;;;;;;0.50;0.50;;;;;;;7.77;100.00;96700.16;29395;246;63009;-57
2024/03/16 01:48:00;;;;;;;0.50;0.50;;;;;;;7.74;100.00;96701.50;29395;214;63005;-55
2024/03/16 01:48:31;;;;;;;0.50;0.50;;;;;;;7.72;100.00;96692.87;29395;211;63009;-56
2024/03/16 01:49:02;;;;;;;0.50;0.50;;;;;;;7.72;100.00;96706.38;29395;262;63005;-56
2024/03/16 01:49:34;;;;;;;0.50;0.50;;;;;;;7.69;100.00;96694.25;29395;222;63009;-56
2024/03/16 01:50:07;;;;;;;0.50;0.50;;;;;;;7.72;100.00;96704.50;29395;254;63004;-56
2024/03/16 01:50:40;;;;;;;0.50;0.50;;;;;;;7.74;100.00;96701.50;29395;202;63009;-55
2024/03/16 01:51:13;;;;;;;0.50;0.50;;;;;;;7.76;100.00;96699.34;29394;277;64009;-56
2024/03/16 01:51:44;;;;;;;0.50;0.50;;;;;;;7.78;100.00;96699.88;29395;210;63019;-56
2024/03/16 01:52:15;;;;;;;0.50;0.50;;;;;;;7.79;100.00;96704.19;29395;201;63011;-56
2024/03/16 01:52:48;;;;;;;0.50;0.50;;;;;;;7.80;100.00;96695.00;29395;221;63009;-57
2024/03/16 01:53:19;;;;;;;0.50;0.50;;;;;;;7.82;100.00;96703.63;29395;234;63005;-56
2024/03/16 01:53:51;;;;;;;0.50;0.50;;;;;;;7.81;100.00;96702.03;29395;233;63009;-56
2024/03/16 01:54:23;;;;;;;0.50;0.50;;;;;;;7.79;100.00;96703.38;29395;271;63005;-55
2024/03/16 01:54:55;;;;;;;0.50;0.50;;;;;;;7.84;100.00;96698.75;29395;202;63009;-56
2024/03/16 01:55:27;;;;;;;0.50;0.50;;;;;;;7.85;100.00;96697.69;29395;214;63005;-56
2024/03/16 01:55:59;;;;;;;0.50;0.50;;;;;;;7.84;100.00;96692.56;29395;215;63009;-56
2024/03/16 01:56:32;;;;;;;0.50;0.50;;;;;;;7.85;100.00;96697.69;29394;215;64009;-56
2024/03/16 01:57:04;;;;;;;0.50;0.50;;;;;;;7.88;100.00;96690.91;29395;197;63009;-56
2024/03/16 01:57:37;;;;;;;0.50;0.50;;;;;;;7.94;100.00;96701.41;29395;202;63009;-56
2024/03/16 01:58:08;;;;;;;0.60;0.60;;;;;;;7.92;100.00;96695.47;29395;216;63009;-56
2024/03/16 01:58:42;;;;;;;0.50;0.50;;;;;;;7.90;100.00;96694.13;29395;246;63004;-56
2024/03/16 01:59:14;;;;;;;0.50;0.50;;;;;;;7.92;100.00;96700.06;29395;233;63009;-56
2024/03/16 01:59:45;;;;;;;0.50;0.50;;;;;;;7.89;100.00;96690.63;29395;221;63004;-56
2024/03/16 02:00:17;;;;;;;0.50;0.50;;;;;;;7.90;100.00;96697.66;29395;258;63009;-55
2024/03/16 02:00:48;;;;;;;0.50;0.50;;;;;;;7.92;100.00;96691.97;29395;228;63005;-55
2024/03/16 02:01:20;;;;;;;0.50;0.50;;;;;;;7.92;100.00;96691.97;29395;241;63019;-56
2024/03/16 02:01:52;;;;;;;0.50;0.50;;;;;;;7.91;100.00;96690.34;29394;219;64009;-57
2024/03/16 02:02:36;;;;;;;0.50;0.50;;;;;;;7.87;100.00;96695.50;29395;236;63009;-56
2024/03/16 02:03:07;;;;;;;0.50;0.50;;;;;;;7.86;100.00;96693.09;29395;219;63005;-56
2024/03/16 02:03:39;;;;;;;0.50;0.50;;;;;;;7.84;100.00;96696.06;29395;236;63009;-56
2024/03/16 02:04:11;;;;;;;0.50;0.50;;;;;;;7.87;100.00;96695.50;29395;223;63005;-57
2024/03/16 02:04:42;;;;;;;0.50;0.50;;;;;;;7.82;100.00;96692.84;29395;216;63009;-56
2024/03/16 02:05:14;;;;;;;0.50;0.50;;;;;;;7.80;100.00;96695.00;29395;238;63004;-57
2024/03/16 02:05:46;;;;;;;0.50;0.50;;;;;;;7.85;100.00;96689.56;29395;251;63009;-56
2024/03/16 02:06:18;;;;;;;0.50;0.50;;;;;;;7.83;100.00;96694.44;29395;279;63004;-56
2024/03/16 02:06:49;;;;;;;0.50;0.50;;;;;;;7.82;100.00;96698.22;29395;214;63009;-55
2024/03/16 02:07:21;;;;;;;0.50;0.50;;;;;;;7.89;100.00;96693.34;29394;215;64008;-55
2024/03/16 02:07:52;;;;;;;0.50;0.50;;;;;;;7.88;100.00;96691.72;29395;202;63017;-56
2024/03/16 02:08:26;;;;;;;0.50;0.50;;;;;;;7.84;100.00;96690.66;29395;297;63005;-56
2024/03/16 02:09:00;;;;;;;0.50;0.50;;;;;;;7.88;100.00;96691.72;29395;210;63017;-57
2024/03/16 02:09:31;;;;;;;0.50;0.50;;;;;;;7.88;100.00;96694.41;29395;198;63010;-56
2024/03/16 02:10:05;;;;;;;0.60;0.60;;;;;;;7.87;100.00;96687.41;29395;199;63009;-56
2024/03/16 02:10:36;;;;;;;0.60;0.60;;;;;;;7.87;100.00;96690.09;29395;272;63005;-56
2024/03/16 02:11:07;;;;;;;0.50;0.50;;;;;;;7.85;100.00;96694.97;29395;230;63013;-56
2024/03/16 02:11:39;;;;;;;0.50;0.50;;;;;;;7.85;100.00;96692.28;29395;247;63005;-54
2024/03/16 02:12:12;;;;;;;0.60;0.60;;;;;;;7.86;100.00;96693.87;29395;210;63009;-55
2024/03/16 02:12:44;;;;;;;0.50;0.50;;;;;;;7.88;100.00;96691.72;29394;202;64009;-56
2024/03/16 02:13:15;;;;;;;0.50;0.50;;;;;;;7.88;100.00;96691.72;29395;270;63009;-56
2024/03/16 02:13:48;;;;;;;0.50;0.50;;;;;;;7.86;100.00;96698.47;29394;211;64009;-56
2024/03/16 02:14:19;;;;;;;0.50;0.50;;;;;;;7.85;100.00;96696.88;29395;222;63009;-55
2024/03/16 02:14:51;;;;;;;0.60;0.60;;;;;;;7.83;100.00;96694.44;29395;199;63004;-55
2024/03/16 02:15:22;;;;;;;0.50;0.50;;;;;;;7.83;100.00;96688.25;29395;232;63009;-56
2024/03/16 02:15:57;;;;;;;0.50;0.50;;;;;;;7.82;100.00;96698.22;29395;238;63005;-55
2024/03/16 02:16:28;;;;;;;0.50;0.50;;;;;;;7.80;100.00;96699.59;29395;234;63009;-56
2024/03/16 02:17:00;;;;;;;0.50;0.50;;;;;;;7.80;100.00;96711.22;29395;214;63005;-56
2024/03/16 02:17:31;;;;;;;0.50;0.50;;;;;;;7.79;100.00;96701.50;29395;245;63009;-56
2024/03/16 02:18:03;;;;;;;0.50;0.50;;;;;;;7.82;100.00;96702.84;29395;244;63005;-55
2024/03/16 02:18:35;;;;;;;0.50;0.50;;;;;;;7.82;100.00;96702.84;29394;322;64013;-55
2024/03/16 02:19:07;;;;;;;0.50;0.50;;;;;;;7.82;100.00;96697.44;29395;212;63004;-56
2024/03/16 02:19:40;;;;;;;0.50;0.50;;;;;;;7.84;100.00;96704.16;29395;279;63022;-56
2024/03/16 02:20:16;;;;;;;0.50;0.50;;;;;;;7.83;100.00;96707.97;29395;230;63004;-55
2024/03/16 02:20:49;;;;;;;0.50;0.50;;;;;;;7.81;100.00;96702.03;29395;217;63009;-56
2024/03/16 02:21:20;;;;;;;0.50;0.50;;;;;;;7.79;100.00;96704.19;29395;252;63004;-54
2024/03/16 02:21:51;;;;;;;0.50;0.50;;;;;;;7.81;100.00;96712.03;29395;206;63008;-55
2024/03/16 02:22:23;;;;;;;0.60;0.60;;;;;;;7.81;100.00;96704.72;29395;207;63004;-56
2024/03/16 02:22:54;;;;;;;0.75;0.75;;;;;;;7.84;100.00;96712.28;29395;224;63005;-55
2024/03/16 02:23:26;;;;;;;0.50;0.50;;;;;;;7.88;100.00;96707.94;29395;256;63005;-57
2024/03/16 02:23:57;;;;;;;0.50;0.50;;;;;;;7.90;100.00;96703.06;29394;263;64013;-56
2024/03/16 02:24:28;;;;;;;0.50;0.50;;;;;;;7.90;100.00;96694.13;29395;199;63009;-55
2024/03/16 02:25:00;;;;;;;0.50;0.50;;;;;;;7.87;100.00;96700.91;29395;218;63009;-56
2024/03/16 02:25:34;;;;;;;0.50;0.50;;;;;;;7.88;100.00;96694.41;29395;217;63005;-57
2024/03/16 02:26:07;;;;;;;0.50;0.50;;;;;;;7.90;100.00;96694.13;29395;266;63009;-56
2024/03/16 02:26:38;;;;;;;0.50;0.50;;;;;;;7.87;100.00;96700.91;29394;234;64009;-55
2024/03/16 02:27:10;;;;;;;0.50;0.50;;;;;;;7.88;100.00;96694.41;29395;240;63009;-55
2024/03/16 02:27:43;;;;;;;0.50;0.50;;;;;;;7.87;100.00;96695.50;29395;204;63004;-56
2024/03/16 02:28:15;;;;;;;0.50;0.50;;;;;;;7.86;100.00;96699.28;29395;220;63009;-56
2024/03/16 02:28:46;;;;;;;0.50;0.50;;;;;;;7.84;100.00;96696.06;29395;217;63004;-56
2024/03/16 02:29:19;;;;;;;0.50;0.50;;;;;;;7.83;100.00;96699.84;29394;215;64013;-56
2024/03/16 02:29:51;;;;;;;0.50;0.50;;;;;;;7.82;100.00;96700.94;29395;206;63017;-56
2024/03/16 02:30:24;;;;;;;0.50;0.50;;;;;;;7.87;100.00;96698.22;29395;202;63009;-57
2024/03/16 02:30:55;;;;;;;0.50;0.50;;;;;;;7.87;100.00;96700.09;29395;296;63005;-56
2024/03/16 02:31:27;;;;;;;0.60;0.60;;;;;;;7.81;100.00;96690.41;29395;214;63009;-55
2024/03/16 02:31:59;;;;;;;0.50;0.50;;;;;;;7.77;100.00;96695.56;29395;257;63005;-55
2024/03/16 02:32:30;;;;;;;0.60;0.60;;;;;;;7.76;100.00;96699.34;29395;204;63020;-56
2024/03/16 02:33:05;;;;;;;0.50;0.50;;;;;;;7.76;100.00;96701.25;29395;198;63005;-56